Česky Dansk Deutsch English Español Suomi Français Magyar Italiano Nederlands norsk Polski Português svenska Türkçe

 

Het Weer

Ouesso (Congo)

08:00, 12 juni 2016 (GMT)

NWNNE
WE
SWSSE
Home            
Ouesso Makoua Souanke Impfondo Mekambo Berberati Mbandaka Lomie Batouri Makokou Gamboma Abong-Mbang Bangui Bossembele Gemena Lastoursville Franceville / Mvengue Moanda Inongo M'Pouya Djambala Bouar Betare-Oya

Om een weerknop op uw website of weblog te plaatsen, copieer onderstaande code en plak die in uw pagina. In het eerste vakje staat HTML-code, in het tweede vakje UBB-code.


Add to Google

Details

Visibility:Greater than 10000 m, 10 km, 32800 ft, 6.2 miles
Clouds:Aufgelockert bewölkt at 1600 ft, 488 m
Durchbrochene Bewölkung at 13000 ft, 3962 m
Temperature:28°C, 82°F
Gefühlte Temperatur:31°C, 87°F
Dew-point:23°C, 73°F
Atmospheric pressure:1014 hPa, 760.6 mmHg, 29.94 inHg, 1.001 atm
Relative humidity:74.3 %
METAR:FCOU 120800Z 00000KT 9999 SCT016 BKN130 28/23 Q1014

Snelkoppelingen

Actuele weersinformatie van de hele wereld. Voeg locaties toe met het plus (+) symbool. Deze snelkoppelingen kunnen worden toegevoegd aan Google.

Lid van de Technetium groep

website free tracking
StatCounter NetStat W3C Validator

17-07-2018 05:48:02
astro.technetium.be money.technetium.be phote.technetium.be tafeltennistafel.technetium.be www.ligfiets.net